Dupont, Washington
Current Conditions -  °F | °C
As of 12:58 AM on Monday 22 Dec 2014 (Local Time) from KGRF Reporting Station
Overcast Overcast  
Wind Chill: 49°   Ceiling: 14000
Heat Index: 49°   Visibility: 10mi
Dew Point: 48°   Wind: 3mph
Humidity: 99%   Direction: 190°S
Pressure: 30.15"   Gusts: NA
Location:  47.1°N, 122.63°W
Report Text: KGRF 220858Z 19003KT 10SM OVC140 09/09 A3015 RMK AO2A SLP214 WND DATA ESTMD 60003 T00920090 53010 $
Loading
Personal Weather Stations






























Interactive Weather Map New forecast layout! Learn more

10-Day Weather Forecast

Advertisements
Track Severe Weather on mobile